createdAt,value
2019-03-22T00:01:18.744Z,17.30
2019-03-22T00:04:00.966Z,17.20
2019-03-22T00:06:52.428Z,17.40
2019-03-22T00:09:37.513Z,17.60
2019-03-22T00:12:25.003Z,17.60
2019-03-22T00:15:08.924Z,17.60
2019-03-22T00:17:53.471Z,17.50
2019-03-22T00:20:46.876Z,17.50
2019-03-22T00:23:34.799Z,17.30
2019-03-22T00:26:18.747Z,17.50
2019-03-22T00:29:06.099Z,17.40
2019-03-22T00:31:47.014Z,17.30
2019-03-22T00:34:32.262Z,17.60
2019-03-22T00:37:17.767Z,17.50
2019-03-22T00:40:06.118Z,17.40
2019-03-22T00:42:47.068Z,17.50
2019-03-22T00:45:35.269Z,17.40
2019-03-22T00:48:37.793Z,17.30
2019-03-22T00:51:21.891Z,17.40
2019-03-22T00:54:08.348Z,17.40
2019-03-22T00:56:51.110Z,17.20
2019-03-22T00:59:35.675Z,17.30
2019-03-22T01:02:19.325Z,17.60
2019-03-22T01:05:03.241Z,17.60
2019-03-22T01:07:51.760Z,18.00
2019-03-22T01:10:37.662Z,18.00
2019-03-22T01:13:17.678Z,17.90
2019-03-22T01:15:59.747Z,17.80
2019-03-22T01:18:41.104Z,17.70
2019-03-22T01:21:25.434Z,17.50
2019-03-22T01:24:09.234Z,17.50
2019-03-22T01:26:50.540Z,17.60
2019-03-22T01:29:39.987Z,17.50
2019-03-22T01:32:26.312Z,17.40
2019-03-22T01:35:12.804Z,17.40
2019-03-22T01:37:55.327Z,17.50
2019-03-22T01:40:36.861Z,17.70
2019-03-22T01:43:28.810Z,18.00
2019-03-22T01:46:11.990Z,18.00
2019-03-22T01:48:55.819Z,18.00
2019-03-22T01:51:39.876Z,18.00
2019-03-22T01:54:23.892Z,18.00
2019-03-22T01:57:05.659Z,18.00
2019-03-22T01:59:50.917Z,18.10
2019-03-22T02:02:36.935Z,18.20
2019-03-22T02:05:19.281Z,18.30
2019-03-22T02:08:04.348Z,18.20
2019-03-22T02:10:49.021Z,18.10
2019-03-22T02:13:31.359Z,18.10
2019-03-22T02:19:30.034Z,18.10
2019-03-22T02:22:10.958Z,18.00
2019-03-22T02:25:07.168Z,18.10
2019-03-22T02:28:03.503Z,18.30
2019-03-22T02:30:44.306Z,18.50
2019-03-22T02:33:25.678Z,18.50
2019-03-22T02:36:06.375Z,18.40
2019-03-22T02:38:51.910Z,18.30
2019-03-22T02:41:40.134Z,18.40
2019-03-22T02:44:27.493Z,18.40
2019-03-22T02:47:09.914Z,18.50
2019-03-22T02:49:56.345Z,18.60
2019-03-22T02:52:38.478Z,18.50
2019-03-22T02:55:19.576Z,18.40
2019-03-22T02:58:01.022Z,18.40
2019-03-22T03:00:41.093Z,18.30
2019-03-22T03:03:21.406Z,18.20
2019-03-22T03:06:06.239Z,18.20
2019-03-22T03:08:51.060Z,18.30
2019-03-22T03:11:39.253Z,18.50
2019-03-22T03:14:27.156Z,18.50
2019-03-22T03:17:12.611Z,18.30
2019-03-22T03:19:55.919Z,18.50
2019-03-22T03:22:37.191Z,18.40
2019-03-22T03:25:21.501Z,18.60
2019-03-22T03:28:07.806Z,18.40
2019-03-22T03:30:50.380Z,18.50
2019-03-22T03:33:33.660Z,18.60
2019-03-22T03:36:20.012Z,18.70
2019-03-22T03:38:59.771Z,18.60
2019-03-22T03:41:40.361Z,18.60
2019-03-22T03:44:48.651Z,18.60
2019-03-22T03:47:35.054Z,18.70
2019-03-22T03:50:23.382Z,18.80
2019-03-22T03:53:07.988Z,19.00
2019-03-22T03:55:54.572Z,19.10
2019-03-22T03:58:51.781Z,19.00
2019-03-22T04:01:28.348Z,18.90
2019-03-22T04:04:12.764Z,18.90
2019-03-22T04:07:08.859Z,18.90
2019-03-22T04:09:53.195Z,18.90
2019-03-22T04:12:34.776Z,19.10
2019-03-22T04:15:32.142Z,19.20
2019-03-22T04:18:23.308Z,19.10
2019-03-22T04:21:14.315Z,19.10
2019-03-22T04:24:00.674Z,19.30
2019-03-22T04:27:06.753Z,19.60
2019-03-22T04:29:57.312Z,19.40
2019-03-22T04:32:43.999Z,19.80
2019-03-22T04:35:33.892Z,19.60
2019-03-22T04:38:19.984Z,19.60
2019-03-22T04:41:06.156Z,19.60
2019-03-22T04:47:01.201Z,19.70
2019-03-22T04:50:03.452Z,19.60
2019-03-22T04:53:23.992Z,19.40
2019-03-22T04:56:14.501Z,19.30
2019-03-22T04:59:18.844Z,19.30
2019-03-22T05:01:59.296Z,19.40
2019-03-22T05:04:46.002Z,19.60
2019-03-22T05:07:34.032Z,19.60
2019-03-22T05:10:30.913Z,19.90
2019-03-22T05:13:25.822Z,19.80
2019-03-22T05:16:42.481Z,19.80
2019-03-22T05:20:06.060Z,19.80
2019-03-22T05:22:52.711Z,19.70
2019-03-22T05:26:11.241Z,19.70
2019-03-22T05:32:23.329Z,19.70
2019-03-22T05:35:31.477Z,19.70
2019-03-22T05:38:19.108Z,19.60
2019-03-22T05:41:02.459Z,19.60
2019-03-22T05:44:03.724Z,19.60
2019-03-22T05:46:49.717Z,19.50
2019-03-22T05:49:31.748Z,19.60
2019-03-22T05:52:33.325Z,19.60
2019-03-22T05:55:27.985Z,19.60
2019-03-22T05:58:26.666Z,19.60
2019-03-22T06:01:13.869Z,19.50
2019-03-22T06:04:12.291Z,19.40
2019-03-22T06:07:02.231Z,19.50
2019-03-22T06:10:10.486Z,19.50
2019-03-22T06:13:38.433Z,19.60
2019-03-22T06:16:37.693Z,19.50
2019-03-22T06:19:33.912Z,19.50
2019-03-22T06:22:24.967Z,19.50
2019-03-22T06:25:08.802Z,19.70
2019-03-22T06:27:58.399Z,19.80
2019-03-22T06:30:43.735Z,19.80
2019-03-22T06:33:29.468Z,19.70
2019-03-22T06:36:23.897Z,19.70
2019-03-22T06:39:33.822Z,19.60
2019-03-22T06:42:46.748Z,19.60
2019-03-22T06:46:02.057Z,19.60
2019-03-22T07:04:08.127Z,19.80
2019-03-22T07:22:00.827Z,19.60
2019-03-22T07:28:51.868Z,19.60
2019-03-22T07:35:38.289Z,19.80
2019-03-22T07:39:23.541Z,19.60
2019-03-22T07:45:24.053Z,19.90
2019-03-22T07:52:33.605Z,19.70
2019-03-22T07:58:50.807Z,19.50
2019-03-22T08:06:14.426Z,19.50
2019-03-22T08:12:52.689Z,19.40
2019-03-22T08:16:08.773Z,19.20
2019-03-22T08:18:52.566Z,19.60
2019-03-22T08:21:39.779Z,19.30
2019-03-22T08:24:38.784Z,19.30
2019-03-22T08:27:20.056Z,19.10
2019-03-22T08:30:17.679Z,19.10
2019-03-22T08:33:19.575Z,19.00
2019-03-22T08:36:14.793Z,19.00
2019-03-22T08:39:10.717Z,19.00
2019-03-22T08:42:01.046Z,19.00
2019-03-22T08:44:48.925Z,18.90
2019-03-22T08:47:34.711Z,19.00
2019-03-22T08:50:17.348Z,19.00
2019-03-22T08:53:01.653Z,19.00
2019-03-22T08:55:51.040Z,19.30
2019-03-22T08:58:35.184Z,19.20
2019-03-22T09:01:20.405Z,19.10
2019-03-22T09:04:14.366Z,19.10
2019-03-22T09:07:02.285Z,19.00
2019-03-22T09:09:46.583Z,19.00
2019-03-22T09:12:40.991Z,19.10
2019-03-22T09:15:40.228Z,19.00
2019-03-22T09:18:20.763Z,19.00
2019-03-22T09:21:07.783Z,18.90
2019-03-22T09:23:53.134Z,18.90
2019-03-22T09:26:47.469Z,18.90
2019-03-22T09:29:38.211Z,18.90
2019-03-22T09:32:31.421Z,19.00
2019-03-22T09:35:12.851Z,18.90
2019-03-22T09:37:57.105Z,18.90
2019-03-22T09:40:43.094Z,18.90
2019-03-22T09:43:37.669Z,18.90
2019-03-22T09:46:22.916Z,18.80
2019-03-22T09:49:07.226Z,18.80
2019-03-22T09:51:57.499Z,18.90
2019-03-22T09:54:42.682Z,18.90
2019-03-22T09:57:27.639Z,18.90
2019-03-22T10:00:17.366Z,18.90
2019-03-22T10:03:04.068Z,18.90
2019-03-22T10:05:51.043Z,18.90
2019-03-22T10:08:40.608Z,18.80
2019-03-22T10:11:39.066Z,18.70
2019-03-22T10:14:24.053Z,19.10
2019-03-22T10:17:12.397Z,19.00
2019-03-22T10:20:07.825Z,18.80
2019-03-22T10:23:03.494Z,18.90
2019-03-22T10:25:49.589Z,18.90
2019-03-22T10:28:55.502Z,18.70
2019-03-22T10:31:42.784Z,18.70
2019-03-22T10:34:29.841Z,18.70
2019-03-22T10:37:10.198Z,18.60
2019-03-22T10:40:02.198Z,18.50
2019-03-22T10:42:45.027Z,18.40
2019-03-22T10:45:40.299Z,18.40
2019-03-22T10:48:26.254Z,18.50
2019-03-22T10:51:30.005Z,18.50
2019-03-22T10:54:14.663Z,18.80
2019-03-22T10:57:14.866Z,18.80
2019-03-22T10:59:57.207Z,18.70
2019-03-22T11:02:44.432Z,18.60
2019-03-22T11:05:40.969Z,18.50
2019-03-22T11:08:31.197Z,18.60
2019-03-22T11:11:17.105Z,18.50
2019-03-22T11:14:08.757Z,18.50
2019-03-22T11:17:13.395Z,18.40
2019-03-22T11:20:13.642Z,18.40
2019-03-22T11:23:02.428Z,18.40
2019-03-22T11:26:04.108Z,18.40
2019-03-22T11:29:06.708Z,18.50
2019-03-22T11:32:12.665Z,18.40
2019-03-22T11:35:03.594Z,18.80
2019-03-22T11:37:48.052Z,18.60
2019-03-22T11:40:34.003Z,18.60
2019-03-22T11:43:17.862Z,18.60
2019-03-22T11:46:07.054Z,18.70
2019-03-22T11:48:55.345Z,18.70
2019-03-22T11:52:09.959Z,18.80
2019-03-22T11:54:56.840Z,18.60
2019-03-22T11:58:03.579Z,19.00
2019-03-22T12:00:57.923Z,18.80
2019-03-22T12:03:57.142Z,18.60
2019-03-22T12:07:04.942Z,18.60
2019-03-22T12:09:57.978Z,18.60
2019-03-22T12:12:45.399Z,18.60
2019-03-22T12:15:34.276Z,18.60
2019-03-22T12:18:38.673Z,18.60
2019-03-22T12:21:35.823Z,18.50
2019-03-22T12:24:23.742Z,18.50
2019-03-22T12:27:15.588Z,18.40
2019-03-22T12:30:07.120Z,18.30
2019-03-22T12:33:10.211Z,18.30
2019-03-22T12:35:57.266Z,18.30
2019-03-22T12:39:09.933Z,18.20
2019-03-22T12:41:59.347Z,18.20
2019-03-22T12:45:14.914Z,18.40
2019-03-22T12:48:23.404Z,18.30
2019-03-22T12:51:26.146Z,18.30
2019-03-22T12:54:29.914Z,18.40
2019-03-22T12:57:21.216Z,18.30
2019-03-22T13:00:38.431Z,18.20
2019-03-22T13:03:34.500Z,18.10
2019-03-22T13:06:39.459Z,18.10
2019-03-22T13:09:43.773Z,18.10
2019-03-22T13:12:49.023Z,18.10
2019-03-22T13:15:54.307Z,18.10
2019-03-22T13:18:49.784Z,18.20
2019-03-22T13:21:36.791Z,18.20
2019-03-22T13:24:42.418Z,18.10
2019-03-22T13:27:33.207Z,18.10
2019-03-22T13:30:38.710Z,18.30
2019-03-22T13:33:37.161Z,18.30
2019-03-22T13:37:00.024Z,18.40
2019-03-22T13:43:33.120Z,18.50
2019-03-22T13:46:54.588Z,18.40
2019-03-22T13:49:59.331Z,18.30
2019-03-22T13:53:13.240Z,18.10
2019-03-22T13:56:18.370Z,18.00
2019-03-22T13:59:15.014Z,17.90
2019-03-22T14:02:39.008Z,17.90
2019-03-22T14:05:40.919Z,17.90
2019-03-22T14:12:21.264Z,17.80
2019-03-22T14:15:09.788Z,17.80
2019-03-22T14:17:58.423Z,18.20
2019-03-22T14:24:40.018Z,18.00
2019-03-22T14:27:43.297Z,17.80
2019-03-22T14:31:00.807Z,17.80
2019-03-22T14:34:00.447Z,17.80
2019-03-22T14:36:59.184Z,17.70
2019-03-22T14:40:06.248Z,17.70
2019-03-22T14:53:27.106Z,17.50
2019-03-22T14:56:28.303Z,17.60
2019-03-22T15:03:07.914Z,17.90
2019-03-22T15:06:13.706Z,17.80
2019-03-22T15:09:32.330Z,17.70
2019-03-22T15:12:53.590Z,17.60
2019-03-22T15:16:20.720Z,17.60
2019-03-22T15:19:25.294Z,17.60
2019-03-22T15:22:36.856Z,17.50
2019-03-22T15:25:37.557Z,17.60
2019-03-22T15:28:57.241Z,17.60
2019-03-22T15:32:01.380Z,17.60
2019-03-22T15:35:11.384Z,17.80
2019-03-22T15:38:19.814Z,17.80
2019-03-22T15:41:05.002Z,18.10
2019-03-22T15:44:03.065Z,17.90
2019-03-22T15:47:32.392Z,17.80
2019-03-22T15:50:35.588Z,17.80
2019-03-22T15:53:35.791Z,17.70
2019-03-22T15:56:38.927Z,17.60
2019-03-22T15:59:46.240Z,17.60
2019-03-22T16:02:42.918Z,17.40
2019-03-22T16:05:48.531Z,17.40
2019-03-22T16:08:49.034Z,17.30
2019-03-22T16:12:01.303Z,17.30
2019-03-22T16:15:03.834Z,17.30
2019-03-22T16:17:59.976Z,17.40
2019-03-22T16:21:02.939Z,17.40
2019-03-22T16:23:57.808Z,17.70
2019-03-22T16:26:55.723Z,17.50
2019-03-22T16:29:46.897Z,17.50
2019-03-22T16:32:49.357Z,17.50
2019-03-22T16:35:57.570Z,17.40
2019-03-22T16:38:53.358Z,17.80
2019-03-22T16:42:02.572Z,17.60
2019-03-22T16:44:54.193Z,17.60
2019-03-22T16:48:01.251Z,17.40
2019-03-22T16:51:04.822Z,17.30
2019-03-22T16:53:45.558Z,17.30
2019-03-22T16:56:37.730Z,17.20
2019-03-22T16:59:17.728Z,17.30
2019-03-22T17:02:01.171Z,17.10
2019-03-22T17:05:06.079Z,17.10
2019-03-22T17:07:44.798Z,17.00
2019-03-22T17:10:42.427Z,17.00
2019-03-22T17:13:35.475Z,17.00
2019-03-22T17:16:24.985Z,16.90
2019-03-22T17:19:08.269Z,16.90
2019-03-22T17:21:58.880Z,16.80
2019-03-22T17:24:45.349Z,16.80
2019-03-22T17:27:33.021Z,16.80
2019-03-22T17:30:16.827Z,16.70
2019-03-22T17:33:05.327Z,16.70
2019-03-22T17:35:53.919Z,16.50
2019-03-22T17:38:52.754Z,16.40
2019-03-22T17:41:31.523Z,16.50
2019-03-22T17:44:14.295Z,16.80
2019-03-22T17:47:10.954Z,16.70
2019-03-22T17:49:50.763Z,16.80
2019-03-22T17:52:37.501Z,16.70
2019-03-22T17:55:29.949Z,16.70
2019-03-22T17:58:10.205Z,16.60
2019-03-22T18:00:54.826Z,16.70
2019-03-22T18:03:36.268Z,16.60
2019-03-22T18:06:24.798Z,16.70
2019-03-22T18:09:13.652Z,16.60
2019-03-22T18:11:59.289Z,16.60
2019-03-22T18:14:47.228Z,16.60
2019-03-22T18:17:29.587Z,16.60
2019-03-22T18:20:24.426Z,16.60
2019-03-22T18:23:11.000Z,16.60
2019-03-22T18:25:55.811Z,16.60
2019-03-22T18:28:46.632Z,16.50
2019-03-22T18:31:34.374Z,16.90
2019-03-22T18:34:23.578Z,16.70
2019-03-22T18:37:07.090Z,17.00
2019-03-22T18:39:52.214Z,16.90
2019-03-22T18:42:38.368Z,16.70
2019-03-22T18:45:24.133Z,16.60
2019-03-22T18:48:10.914Z,16.50
2019-03-22T18:51:01.292Z,16.50
2019-03-22T18:53:52.808Z,16.40
2019-03-22T18:56:35.069Z,16.40
2019-03-22T18:59:20.351Z,16.40
2019-03-22T19:02:05.591Z,16.40
2019-03-22T19:04:53.823Z,16.30
2019-03-22T19:07:38.467Z,16.30
2019-03-22T19:10:18.722Z,16.40
2019-03-22T19:13:01.131Z,16.30
2019-03-22T19:15:43.078Z,16.40
2019-03-22T19:18:25.246Z,16.40
2019-03-22T19:21:11.006Z,16.40
2019-03-22T19:23:54.858Z,16.60
2019-03-22T19:26:43.094Z,16.40
2019-03-22T19:29:23.579Z,16.30
2019-03-22T19:32:13.315Z,16.20
2019-03-22T19:34:54.512Z,16.10
2019-03-22T19:37:36.267Z,16.10
2019-03-22T19:40:14.990Z,16.00
2019-03-22T19:42:59.654Z,16.00
2019-03-22T19:45:44.035Z,16.00
2019-03-22T19:48:36.055Z,16.00
2019-03-22T19:51:21.225Z,16.00
2019-03-22T19:54:03.355Z,16.10
2019-03-22T19:56:46.423Z,16.00
2019-03-22T19:59:28.113Z,15.90
2019-03-22T20:02:10.605Z,15.90
2019-03-22T20:05:04.269Z,15.90
2019-03-22T20:07:44.275Z,15.90
2019-03-22T20:10:26.827Z,15.90
2019-03-22T20:13:14.430Z,16.30
2019-03-22T20:16:05.812Z,16.20
2019-03-22T20:18:47.539Z,16.10
2019-03-22T20:21:33.751Z,16.00
2019-03-22T20:24:31.969Z,16.00
2019-03-22T20:27:16.994Z,16.00
2019-03-22T20:30:01.292Z,16.00
2019-03-22T20:32:44.192Z,16.00
2019-03-22T20:35:24.692Z,15.90
2019-03-22T20:38:06.597Z,15.90
2019-03-22T20:40:47.147Z,15.90
2019-03-22T20:43:35.375Z,15.90
2019-03-22T20:46:20.307Z,15.90
2019-03-22T20:49:05.143Z,15.80
2019-03-22T20:51:52.359Z,15.80
2019-03-22T20:54:33.802Z,15.80
2019-03-22T20:57:20.643Z,15.70
2019-03-22T21:00:04.860Z,15.70
2019-03-22T21:02:47.938Z,16.00
2019-03-22T21:05:30.684Z,15.90
2019-03-22T21:08:14.991Z,15.80
2019-03-22T21:10:56.924Z,15.70
2019-03-22T21:13:40.907Z,15.70
2019-03-22T21:16:20.939Z,15.60
2019-03-22T21:19:06.189Z,15.50
2019-03-22T21:21:46.698Z,15.50
2019-03-22T21:24:34.502Z,15.40
2019-03-22T21:27:15.888Z,15.30
2019-03-22T21:29:59.168Z,15.40
2019-03-22T21:32:49.253Z,15.30
2019-03-22T21:35:37.592Z,15.40
2019-03-22T21:38:19.535Z,15.50
2019-03-22T21:41:00.736Z,15.50
2019-03-22T21:43:42.656Z,15.50
2019-03-22T21:46:24.526Z,15.40
2019-03-22T21:49:05.195Z,15.50
2019-03-22T21:51:49.939Z,15.40
2019-03-22T21:54:34.321Z,15.80
2019-03-22T21:57:15.934Z,15.60
2019-03-22T21:59:56.803Z,15.60
2019-03-22T22:02:39.373Z,15.50
2019-03-22T22:05:22.842Z,15.50
2019-03-22T22:08:07.465Z,15.40
2019-03-22T22:10:59.353Z,15.40
2019-03-22T22:13:39.817Z,15.40
2019-03-22T22:16:23.226Z,15.50
2019-03-22T22:19:08.245Z,15.60
2019-03-22T22:21:53.747Z,15.70
2019-03-22T22:24:36.932Z,15.70
2019-03-22T22:27:20.130Z,15.60
2019-03-22T22:30:02.115Z,15.60
2019-03-22T22:32:51.316Z,15.60
2019-03-22T22:35:39.333Z,15.60
2019-03-22T22:38:22.218Z,15.50
2019-03-22T22:41:06.691Z,15.40
2019-03-22T22:43:51.922Z,15.60
2019-03-22T22:46:37.535Z,16.00
2019-03-22T22:49:28.945Z,15.80
2019-03-22T22:52:16.712Z,15.70
2019-03-22T22:55:00.927Z,15.60
2019-03-22T22:57:51.049Z,15.60
2019-03-22T23:00:32.407Z,15.70
2019-03-22T23:03:24.085Z,15.70
2019-03-22T23:06:09.599Z,15.70
2019-03-22T23:09:03.615Z,15.70
2019-03-22T23:11:55.538Z,15.70
2019-03-22T23:14:39.304Z,15.70
2019-03-22T23:17:23.612Z,15.70
2019-03-22T23:20:25.507Z,15.70
2019-03-22T23:23:27.652Z,15.70
2019-03-22T23:26:11.167Z,15.80
2019-03-22T23:29:02.217Z,15.90
2019-03-22T23:31:45.495Z,16.00
2019-03-22T23:34:37.088Z,16.10
2019-03-22T23:37:15.001Z,16.20
2019-03-22T23:40:07.080Z,16.20
2019-03-22T23:43:03.484Z,16.30
2019-03-22T23:45:47.047Z,16.40
2019-03-22T23:48:32.290Z,16.20
2019-03-22T23:51:25.955Z,16.20
2019-03-22T23:54:16.244Z,16.10
2019-03-22T23:57:01.910Z,16.10
2019-03-22T23:59:43.448Z,16.30
